sensor_id;sensor_type;location;lat;lon;timestamp;pressure;altitude;pressure_sealevel;temperature;humidity
41686;BME280;27370;42.764;23.432;2023-02-03T00:00:59;95786.53;;;0.48;100.00
41686;BME280;27370;42.764;23.432;2023-02-03T00:03:26;95776.34;;;0.38;100.00
41686;BME280;27370;42.764;23.432;2023-02-03T00:05:51;95783.34;;;0.30;100.00
41686;BME280;27370;42.764;23.432;2023-02-03T00:08:18;95776.25;;;0.35;100.00
41686;BME280;27370;42.764;23.432;2023-02-03T00:10:44;95782.25;;;0.32;100.00
41686;BME280;27370;42.764;23.432;2023-02-03T00:13:10;95787.22;;;0.33;100.00
41686;BME280;27370;42.764;23.432;2023-02-03T00:15:37;95798.19;;;0.44;100.00
41686;BME280;27370;42.764;23.432;2023-02-03T00:18:02;95790.13;;;0.28;100.00
41686;BME280;27370;42.764;23.432;2023-02-03T00:20:28;95800.75;;;0.40;100.00
41686;BME280;27370;42.764;23.432;2023-02-03T00:22:54;95809.50;;;0.41;100.00
41686;BME280;27370;42.764;23.432;2023-02-03T00:25:21;95804.63;;;0.43;100.00
41686;BME280;27370;42.764;23.432;2023-02-03T00:27:46;95813.84;;;0.45;100.00
41686;BME280;27370;42.764;23.432;2023-02-03T00:30:12;95815.72;;;0.45;100.00
41686;BME280;27370;42.764;23.432;2023-02-03T00:32:37;95816.97;;;0.35;100.00
41686;BME280;27370;42.764;23.432;2023-02-03T00:35:04;95803.88;;;0.30;100.00
41686;BME280;27370;42.764;23.432;2023-02-03T00:37:29;95799.91;;;0.24;100.00
41686;BME280;27370;42.764;23.432;2023-02-03T00:39:55;95799.91;;;0.24;100.00
41686;BME280;27370;42.764;23.432;2023-02-03T00:42:20;95807.22;;;0.27;100.00
41686;BME280;27370;42.764;23.432;2023-02-03T00:44:45;95803.88;;;0.18;100.00
41686;BME280;27370;42.764;23.432;2023-02-03T00:47:11;95814.00;;;0.24;100.00
41686;BME280;27370;42.764;23.432;2023-02-03T00:49:36;95808.00;;;0.27;100.00
41686;BME280;27370;42.764;23.432;2023-02-03T00:52:02;95825.53;;;0.28;100.00
41686;BME280;27370;42.764;23.432;2023-02-03T00:54:28;95805.66;;;0.14;100.00
41686;BME280;27370;42.764;23.432;2023-02-03T00:56:53;95822.63;;;0.21;100.00
41686;BME280;27370;42.764;23.432;2023-02-03T00:59:19;95813.84;;;0.21;100.00
41686;BME280;27370;42.764;23.432;2023-02-03T01:01:45;95809.22;;;0.18;100.00
41686;BME280;27370;42.764;23.432;2023-02-03T01:04:11;95801.78;;;0.23;100.00
41686;BME280;27370;42.764;23.432;2023-02-03T01:06:40;95813.84;;;0.21;100.00
41686;BME280;27370;42.764;23.432;2023-02-03T01:09:06;95828.41;;;0.23;100.00
41686;BME280;27370;42.764;23.432;2023-02-03T01:11:32;95832.50;;;0.21;100.00
41686;BME280;27370;42.764;23.432;2023-02-03T01:13:58;95837.28;;;0.15;100.00
41686;BME280;27370;42.764;23.432;2023-02-03T01:16:27;95831.28;;;0.18;100.00
41686;BME280;27370;42.764;23.432;2023-02-03T01:18:54;95826.53;;;0.12;100.00
41686;BME280;27370;42.764;23.432;2023-02-03T01:21:22;95830.28;;;0.11;100.00
41686;BME280;27370;42.764;23.432;2023-02-03T01:23:51;95818.97;;;0.14;100.00
41686;BME280;27370;42.764;23.432;2023-02-03T01:26:19;95827.50;;;0.19;100.00
41686;BME280;27370;42.764;23.432;2023-02-03T01:28:58;95819.75;;;0.14;100.00
41686;BME280;27370;42.764;23.432;2023-02-03T01:31:26;95835.97;;;0.09;100.00
41686;BME280;27370;42.764;23.432;2023-02-03T01:33:53;95830.41;;;0.14;100.00
41686;BME280;27370;42.764;23.432;2023-02-03T01:36:21;95830.19;;;0.07;100.00
41686;BME280;27370;42.764;23.432;2023-02-03T01:38:47;95835.97;;;0.09;100.00
41686;BME280;27370;42.764;23.432;2023-02-03T01:41:15;95831.19;;;0.03;100.00
41686;BME280;27370;42.764;23.432;2023-02-03T01:43:46;95824.06;;;-0.06;100.00
41686;BME280;27370;42.764;23.432;2023-02-03T01:46:36;95825.53;;;0.04;100.00
41686;BME280;27370;42.764;23.432;2023-02-03T01:49:07;95828.63;;;-0.06;100.00
41686;BME280;27370;42.764;23.432;2023-02-03T01:51:35;95822.97;;;-0.05;100.00
41686;BME280;27370;42.764;23.432;2023-02-03T01:54:03;95826.72;;;-0.06;100.00
41686;BME280;27370;42.764;23.432;2023-02-03T01:56:33;95832.28;;;-0.11;100.00
41686;BME280;27370;42.764;23.432;2023-02-03T01:59:00;95821.97;;;-0.12;100.00
41686;BME280;27370;42.764;23.432;2023-02-03T02:01:28;95827.63;;;-0.14;100.00
41686;BME280;27370;42.764;23.432;2023-02-03T02:03:57;95823.50;;;-0.23;100.00
41686;BME280;27370;42.764;23.432;2023-02-03T02:06:24;95830.63;;;-0.15;100.00
41686;BME280;27370;42.764;23.432;2023-02-03T02:08:51;95836.72;;;-0.15;100.00
41686;BME280;27370;42.764;23.432;2023-02-03T02:11:17;95843.16;;;-0.16;100.00
41686;BME280;27370;42.764;23.432;2023-02-03T02:13:46;95843.25;;;-0.12;100.00
41686;BME280;27370;42.764;23.432;2023-02-03T02:22:13;95856.47;;;-0.16;100.00
41686;BME280;27370;42.764;23.432;2023-02-03T02:41:38;95875.66;;;0.02;100.00
41686;BME280;27370;42.764;23.432;2023-02-03T02:46:42;95865.31;;;-0.12;100.00
41686;BME280;27370;42.764;23.432;2023-02-03T02:49:41;95869.66;;;-0.19;100.00
41686;BME280;27370;42.764;23.432;2023-02-03T02:52:10;95856.31;;;-0.44;100.00
41686;BME280;27370;42.764;23.432;2023-02-03T02:54:41;95871.06;;;-0.34;100.00
41686;BME280;27370;42.764;23.432;2023-02-03T02:57:11;95879.19;;;-0.51;100.00
41686;BME280;27370;42.764;23.432;2023-02-03T02:59:38;95881.06;;;-0.64;100.00
41686;BME280;27370;42.764;23.432;2023-02-03T03:02:04;95885.72;;;-0.61;100.00
41686;BME280;27370;42.764;23.432;2023-02-03T03:04:32;95883.53;;;-0.47;100.00
41686;BME280;27370;42.764;23.432;2023-02-03T03:07:00;95885.16;;;-0.67;100.00
41686;BME280;27370;42.764;23.432;2023-02-03T03:09:44;95891.88;;;-0.69;100.00
41686;BME280;27370;42.764;23.432;2023-02-03T03:15:10;95894.41;;;-0.73;100.00
41686;BME280;27370;42.764;23.432;2023-02-03T03:17:44;95891.19;;;-0.78;100.00
41686;BME280;27370;42.764;23.432;2023-02-03T03:20:16;95912.44;;;-0.78;100.00
41686;BME280;27370;42.764;23.432;2023-02-03T03:22:52;95910.44;;;-0.81;100.00
41686;BME280;27370;42.764;23.432;2023-02-03T03:25:24;95895.97;;;-0.93;100.00
41686;BME280;27370;42.764;23.432;2023-02-03T03:28:02;95902.84;;;-0.92;100.00
41686;BME280;27370;42.764;23.432;2023-02-03T03:30:32;95902.59;;;-0.99;100.00
41686;BME280;27370;42.764;23.432;2023-02-03T03:32:59;95909.91;;;-0.96;100.00
41686;BME280;27370;42.764;23.432;2023-02-03T03:35:31;95904.03;;;-1.01;100.00
41686;BME280;27370;42.764;23.432;2023-02-03T03:38:07;95918.88;;;-1.00;100.00
41686;BME280;27370;42.764;23.432;2023-02-03T03:40:42;95922.31;;;-1.00;100.00
41686;BME280;27370;42.764;23.432;2023-02-03T03:43:18;95921.84;;;-1.02;100.00
41686;BME280;27370;42.764;23.432;2023-02-03T03:45:51;95920.69;;;-0.92;100.00
41686;BME280;27370;42.764;23.432;2023-02-03T03:51:01;95925.28;;;-1.01;100.00
41686;BME280;27370;42.764;23.432;2023-02-03T03:53:31;95931.72;;;-0.81;100.00
41686;BME280;27370;42.764;23.432;2023-02-03T03:56:00;95930.69;;;-0.89;100.00
41686;BME280;27370;42.764;23.432;2023-02-03T03:58:31;95940.47;;;-0.81;100.00
41686;BME280;27370;42.764;23.432;2023-02-03T04:01:00;95927.75;;;-0.75;100.00
41686;BME280;27370;42.764;23.432;2023-02-03T04:03:32;95934.69;;;-0.83;100.00
41686;BME280;27370;42.764;23.432;2023-02-03T04:06:02;95922.31;;;-1.00;100.00
41686;BME280;27370;42.764;23.432;2023-02-03T04:08:28;95941.44;;;-0.85;100.00
41686;BME280;27370;42.764;23.432;2023-02-03T04:10:53;95940.25;;;-0.76;100.00
41686;BME280;27370;42.764;23.432;2023-02-03T04:13:18;95955.63;;;-0.60;100.00
41686;BME280;27370;42.764;23.432;2023-02-03T04:15:45;95962.50;;;-0.59;100.00
41686;BME280;27370;42.764;23.432;2023-02-03T04:18:14;95959.31;;;-0.53;100.00
41686;BME280;27370;42.764;23.432;2023-02-03T04:20:40;95952.63;;;-0.38;100.00
41686;BME280;27370;42.764;23.432;2023-02-03T04:23:06;95955.63;;;-0.40;100.00
41686;BME280;27370;42.764;23.432;2023-02-03T04:25:31;95971.16;;;-0.29;100.00
41686;BME280;27370;42.764;23.432;2023-02-03T04:27:57;95963.19;;;-0.29;100.00
41686;BME280;27370;42.764;23.432;2023-02-03T04:30:22;95968.63;;;-0.26;100.00
41686;BME280;27370;42.764;23.432;2023-02-03T04:32:48;95973.28;;;-0.23;100.00
41686;BME280;27370;42.764;23.432;2023-02-03T04:35:14;95979.16;;;-0.29;100.00
41686;BME280;27370;42.764;23.432;2023-02-03T04:37:40;95985.69;;;-0.27;100.00
41686;BME280;27370;42.764;23.432;2023-02-03T04:40:07;95978.81;;;-0.28;100.00
41686;BME280;27370;42.764;23.432;2023-02-03T04:42:32;95979.91;;;-0.29;100.00
41686;BME280;27370;42.764;23.432;2023-02-03T04:44:58;95969.16;;;-0.33;100.00
41686;BME280;27370;42.764;23.432;2023-02-03T04:47:23;95991.78;;;-0.26;100.00
41686;BME280;27370;42.764;23.432;2023-02-03T04:49:49;95981.22;;;-0.35;100.00
41686;BME280;27370;42.764;23.432;2023-02-03T04:52:14;95984.56;;;-0.38;100.00
41686;BME280;27370;42.764;23.432;2023-02-03T04:54:40;96009.63;;;-0.27;100.00
41686;BME280;27370;42.764;23.432;2023-02-03T04:57:05;95997.41;;;-0.07;100.00
41686;BME280;27370;42.764;23.432;2023-02-03T04:59:31;95993.28;;;-0.17;100.00
41686;BME280;27370;42.764;23.432;2023-02-03T05:01:57;95992.38;;;-0.21;100.00
41686;BME280;27370;42.764;23.432;2023-02-03T05:04:23;95992.88;;;-0.07;100.00
41686;BME280;27370;42.764;23.432;2023-02-03T05:06:48;95996.84;;;-0.13;100.00
41686;BME280;27370;42.764;23.432;2023-02-03T05:09:15;96000.16;;;-0.16;100.00
41686;BME280;27370;42.764;23.432;2023-02-03T05:11:41;95998.63;;;-0.05;100.00
41686;BME280;27370;42.764;23.432;2023-02-03T05:14:06;96001.38;;;-0.13;100.00
41686;BME280;27370;42.764;23.432;2023-02-03T05:16:32;95997.16;;;-0.14;100.00
41686;BME280;27370;42.764;23.432;2023-02-03T05:18:57;95998.50;;;-0.20;100.00
41686;BME280;27370;42.764;23.432;2023-02-03T05:21:23;96017.91;;;-0.20;100.00
41686;BME280;27370;42.764;23.432;2023-02-03T05:23:49;96006.97;;;-0.27;100.00
41686;BME280;27370;42.764;23.432;2023-02-03T05:26:14;96020.88;;;-0.21;100.00
41686;BME280;27370;42.764;23.432;2023-02-03T05:28:40;96032.88;;;-0.15;100.00
41686;BME280;27370;42.764;23.432;2023-02-03T05:31:05;96030.22;;;-0.15;100.00
41686;BME280;27370;42.764;23.432;2023-02-03T05:33:31;96043.63;;;-0.12;100.00
41686;BME280;27370;42.764;23.432;2023-02-03T05:35:57;96026.91;;;-0.12;100.00
41686;BME280;27370;42.764;23.432;2023-02-03T05:38:22;96028.22;;;-0.18;100.00
41686;BME280;27370;42.764;23.432;2023-02-03T05:40:50;96037.41;;;0.05;100.00
41686;BME280;27370;42.764;23.432;2023-02-03T05:43:35;96034.34;;;-0.06;100.00
41686;BME280;27370;42.764;23.432;2023-02-03T05:46:02;96037.59;;;0.00;100.00
41686;BME280;27370;42.764;23.432;2023-02-03T05:48:28;96048.09;;;-0.04;100.00
41686;BME280;27370;42.764;23.432;2023-02-03T05:50:54;96035.56;;;-0.03;100.00
41686;BME280;27370;42.764;23.432;2023-02-03T05:53:20;96045.25;;;0.02;100.00
41686;BME280;27370;42.764;23.432;2023-02-03T05:55:46;96045.38;;;0.05;100.00
41686;BME280;27370;42.764;23.432;2023-02-03T05:58:11;96051.22;;;-0.02;100.00
41686;BME280;27370;42.764;23.432;2023-02-03T06:00:37;96051.53;;;-0.03;100.00
41686;BME280;27370;42.764;23.432;2023-02-03T06:03:02;96036.44;;;-0.11;100.00
41686;BME280;27370;42.764;23.432;2023-02-03T06:05:30;96043.09;;;-0.05;100.00
41686;BME280;27370;42.764;23.432;2023-02-03T06:07:56;96043.16;;;0.07;100.00
41686;BME280;27370;42.764;23.432;2023-02-03T06:10:21;96049.50;;;0.15;100.00
41686;BME280;27370;42.764;23.432;2023-02-03T06:12:48;96058.75;;;-0.04;100.00
41686;BME280;27370;42.764;23.432;2023-02-03T06:15:13;96057.81;;;0.13;100.00
41686;BME280;27370;42.764;23.432;2023-02-03T06:17:39;96059.69;;;0.01;100.00
41686;BME280;27370;42.764;23.432;2023-02-03T06:20:09;96060.38;;;0.10;100.00
41686;BME280;27370;42.764;23.432;2023-02-03T06:22:35;96061.47;;;0.09;100.00
41686;BME280;27370;42.764;23.432;2023-02-03T06:25:01;96068.94;;;0.15;100.00
41686;BME280;27370;42.764;23.432;2023-02-03T06:27:26;96071.91;;;0.14;100.00
41686;BME280;27370;42.764;23.432;2023-02-03T06:29:52;96075.34;;;0.14;100.00
41686;BME280;27370;42.764;23.432;2023-02-03T06:32:17;96078.03;;;0.14;100.00
41686;BME280;27370;42.764;23.432;2023-02-03T06:34:43;96077.97;;;0.23;100.00
41686;BME280;27370;42.764;23.432;2023-02-03T06:37:08;96085.09;;;0.43;100.00
41686;BME280;27370;42.764;23.432;2023-02-03T06:39:34;96096.63;;;0.80;100.00
41686;BME280;27370;42.764;23.432;2023-02-03T06:41:59;96088.00;;;0.96;100.00
41686;BME280;27370;42.764;23.432;2023-02-03T06:44:25;96090.22;;;1.06;100.00
41686;BME280;27370;42.764;23.432;2023-02-03T06:46:50;96093.22;;;1.29;100.00
41686;BME280;27370;42.764;23.432;2023-02-03T06:49:16;96112.78;;;1.20;100.00
41686;BME280;27370;42.764;23.432;2023-02-03T06:51:43;96106.56;;;1.16;100.00
41686;BME280;27370;42.764;23.432;2023-02-03T06:54:12;96094.69;;;1.14;100.00
41686;BME280;27370;42.764;23.432;2023-02-03T06:56:38;96108.09;;;1.05;100.00
41686;BME280;27370;42.764;23.432;2023-02-03T06:59:04;96109.66;;;1.06;100.00
41686;BME280;27370;42.764;23.432;2023-02-03T07:01:29;96110.66;;;1.02;100.00
41686;BME280;27370;42.764;23.432;2023-02-03T07:03:56;96100.09;;;1.05;100.00
41686;BME280;27370;42.764;23.432;2023-02-03T07:06:27;96108.97;;;1.09;100.00
41686;BME280;27370;42.764;23.432;2023-02-03T07:08:57;96097.88;;;1.32;100.00
41686;BME280;27370;42.764;23.432;2023-02-03T07:11:23;96106.78;;;1.48;100.00
41686;BME280;27370;42.764;23.432;2023-02-03T07:13:49;96097.66;;;1.49;100.00
41686;BME280;27370;42.764;23.432;2023-02-03T07:16:15;96093.97;;;1.66;100.00
41686;BME280;27370;42.764;23.432;2023-02-03T07:18:41;96095.66;;;1.98;100.00
41686;BME280;27370;42.764;23.432;2023-02-03T07:21:06;96092.63;;;2.12;100.00
41686;BME280;27370;42.764;23.432;2023-02-03T07:23:32;96089.38;;;2.19;100.00
41686;BME280;27370;42.764;23.432;2023-02-03T07:26:02;96093.50;;;2.16;100.00
41686;BME280;27370;42.764;23.432;2023-02-03T07:28:29;96096.16;;;2.16;100.00
41686;BME280;27370;42.764;23.432;2023-02-03T07:30:55;96102.69;;;2.31;100.00
41686;BME280;27370;42.764;23.432;2023-02-03T07:33:21;96100.19;;;2.38;100.00
41686;BME280;27370;42.764;23.432;2023-02-03T07:35:52;96095.34;;;2.28;100.00
41686;BME280;27370;42.764;23.432;2023-02-03T07:38:17;96098.31;;;2.38;100.00
41686;BME280;27370;42.764;23.432;2023-02-03T07:40:43;96110.88;;;2.38;100.00
41686;BME280;27370;42.764;23.432;2023-02-03T07:43:08;96106.38;;;2.54;100.00
41686;BME280;27370;42.764;23.432;2023-02-03T07:45:34;96110.94;;;2.54;100.00
41686;BME280;27370;42.764;23.432;2023-02-03T07:47:59;96114.66;;;2.49;100.00
41686;BME280;27370;42.764;23.432;2023-02-03T07:50:25;96124.06;;;2.59;100.00
41686;BME280;27370;42.764;23.432;2023-02-03T07:52:50;96129.53;;;2.78;100.00
41686;BME280;27370;42.764;23.432;2023-02-03T07:55:16;96126.84;;;2.94;100.00
41686;BME280;27370;42.764;23.432;2023-02-03T07:57:42;96128.31;;;2.91;100.00
41686;BME280;27370;42.764;23.432;2023-02-03T08:00:13;96122.13;;;2.87;100.00
41686;BME280;27370;42.764;23.432;2023-02-03T08:02:43;96126.44;;;2.92;100.00
41686;BME280;27370;42.764;23.432;2023-02-03T08:05:09;96133.88;;;2.98;100.00
41686;BME280;27370;42.764;23.432;2023-02-03T08:07:35;96118.94;;;2.97;100.00
41686;BME280;27370;42.764;23.432;2023-02-03T08:10:00;96133.88;;;3.14;100.00
41686;BME280;27370;42.764;23.432;2023-02-03T08:12:26;96138.56;;;3.17;100.00
41686;BME280;27370;42.764;23.432;2023-02-03T08:14:52;96128.16;;;3.16;100.00
41686;BME280;27370;42.764;23.432;2023-02-03T08:17:17;96142.44;;;3.20;100.00
41686;BME280;27370;42.764;23.432;2023-02-03T08:19:43;96142.88;;;3.22;100.00
41686;BME280;27370;42.764;23.432;2023-02-03T08:22:09;96148.53;;;3.36;100.00
41686;BME280;27370;42.764;23.432;2023-02-03T08:24:42;96140.78;;;3.47;100.00
41686;BME280;27370;42.764;23.432;2023-02-03T08:27:15;96148.81;;;3.62;100.00
41686;BME280;27370;42.764;23.432;2023-02-03T08:29:41;96124.19;;;3.57;100.00
41686;BME280;27370;42.764;23.432;2023-02-03T08:32:12;96131.25;;;3.65;100.00
41686;BME280;27370;42.764;23.432;2023-02-03T08:34:38;96127.97;;;3.56;100.00
41686;BME280;27370;42.764;23.432;2023-02-03T08:37:05;96142.81;;;3.69;100.00
41686;BME280;27370;42.764;23.432;2023-02-03T08:39:31;96121.63;;;3.45;100.00
41686;BME280;27370;42.764;23.432;2023-02-03T08:41:58;96151.47;;;3.31;100.00
41686;BME280;27370;42.764;23.432;2023-02-03T08:44:23;96143.53;;;3.34;100.00
41686;BME280;27370;42.764;23.432;2023-02-03T08:46:50;96138.63;;;3.36;100.00
41686;BME280;27370;42.764;23.432;2023-02-03T08:49:16;96146.47;;;3.45;100.00
41686;BME280;27370;42.764;23.432;2023-02-03T08:51:43;96138.06;;;3.78;100.00
41686;BME280;27370;42.764;23.432;2023-02-03T08:54:10;96146.84;;;3.79;100.00
41686;BME280;27370;42.764;23.432;2023-02-03T08:56:35;96143.31;;;3.90;100.00
41686;BME280;27370;42.764;23.432;2023-02-03T08:59:01;96148.38;;;4.30;100.00
41686;BME280;27370;42.764;23.432;2023-02-03T09:01:27;96153.66;;;4.46;100.00
41686;BME280;27370;42.764;23.432;2023-02-03T09:03:53;96134.94;;;4.50;100.00
41686;BME280;27370;42.764;23.432;2023-02-03T09:06:19;96143.16;;;4.57;100.00
41686;BME280;27370;42.764;23.432;2023-02-03T09:08:46;96144.94;;;4.91;100.00
41686;BME280;27370;42.764;23.432;2023-02-03T09:11:15;96143.47;;;5.17;100.00
41686;BME280;27370;42.764;23.432;2023-02-03T09:13:41;96148.06;;;5.16;100.00
41686;BME280;27370;42.764;23.432;2023-02-03T09:16:13;96143.47;;;5.17;100.00
41686;BME280;27370;42.764;23.432;2023-02-03T09:18:41;96118.28;;;4.79;100.00
41686;BME280;27370;42.764;23.432;2023-02-03T09:21:09;96115.06;;;5.16;100.00
41686;BME280;27370;42.764;23.432;2023-02-03T09:23:38;96108.28;;;5.45;100.00
41686;BME280;27370;42.764;23.432;2023-02-03T09:26:12;96105.63;;;5.48;100.00
41686;BME280;27370;42.764;23.432;2023-02-03T09:28:38;96125.16;;;5.72;100.00
41686;BME280;27370;42.764;23.432;2023-02-03T09:31:06;96120.34;;;5.58;100.00
41686;BME280;27370;42.764;23.432;2023-02-03T09:33:32;96129.00;;;5.71;100.00
41686;BME280;27370;42.764;23.432;2023-02-03T09:35:58;96135.81;;;5.19;100.00
41686;BME280;27370;42.764;23.432;2023-02-03T09:38:25;96126.72;;;5.01;100.00
41686;BME280;27370;42.764;23.432;2023-02-03T09:41:19;96133.81;;;5.12;100.00
41686;BME280;27370;42.764;23.432;2023-02-03T09:43:52;96130.59;;;5.03;100.00
41686;BME280;27370;42.764;23.432;2023-02-03T09:46:28;96123.25;;;5.46;100.00
41686;BME280;27370;42.764;23.432;2023-02-03T09:51:49;96130.13;;;5.70;100.00
41686;BME280;27370;42.764;23.432;2023-02-03T09:54:28;96134.25;;;5.64;100.00
41686;BME280;27370;42.764;23.432;2023-02-03T09:56:56;96128.47;;;5.88;100.00
41686;BME280;27370;42.764;23.432;2023-02-03T09:59:25;96126.31;;;5.71;100.00
41686;BME280;27370;42.764;23.432;2023-02-03T10:07:01;96120.09;;;5.90;100.00
41686;BME280;27370;42.764;23.432;2023-02-03T10:09:44;96120.13;;;6.23;100.00
41686;BME280;27370;42.764;23.432;2023-02-03T10:18:02;96103.00;;;6.35;100.00
41686;BME280;27370;42.764;23.432;2023-02-03T10:20:37;96093.31;;;6.30;100.00
41686;BME280;27370;42.764;23.432;2023-02-03T10:23:10;96082.50;;;5.93;100.00
41686;BME280;27370;42.764;23.432;2023-02-03T10:26:21;96088.66;;;5.94;100.00
41686;BME280;27370;42.764;23.432;2023-02-03T10:28:55;96085.19;;;6.23;100.00
41686;BME280;27370;42.764;23.432;2023-02-03T10:31:24;96083.44;;;6.38;100.00
41686;BME280;27370;42.764;23.432;2023-02-03T10:33:57;96090.25;;;6.32;100.00
41686;BME280;27370;42.764;23.432;2023-02-03T10:36:32;96081.25;;;6.51;100.00
41686;BME280;27370;42.764;23.432;2023-02-03T10:41:30;96074.72;;;6.14;100.00
41686;BME280;27370;42.764;23.432;2023-02-03T10:43:57;96075.34;;;6.04;100.00
41686;BME280;27370;42.764;23.432;2023-02-03T10:46:30;96090.25;;;5.98;100.00
41686;BME280;27370;42.764;23.432;2023-02-03T10:48:56;96093.78;;;5.79;100.00
41686;BME280;27370;42.764;23.432;2023-02-03T10:51:49;96097.78;;;5.89;100.00
41686;BME280;27370;42.764;23.432;2023-02-03T10:54:31;96100.66;;;6.03;100.00
41686;BME280;27370;42.764;23.432;2023-02-03T10:57:05;96097.50;;;5.94;100.00
41686;BME280;27370;42.764;23.432;2023-02-03T10:59:36;96091.09;;;6.06;100.00
41686;BME280;27370;42.764;23.432;2023-02-03T11:02:29;96086.34;;;5.92;100.00
41686;BME280;27370;42.764;23.432;2023-02-03T11:07:43;96086.97;;;5.85;96.15
41686;BME280;27370;42.764;23.432;2023-02-03T11:13:10;96095.03;;;5.59;94.90
41686;BME280;27370;42.764;23.432;2023-02-03T11:15:36;96079.78;;;5.40;93.79
41686;BME280;27370;42.764;23.432;2023-02-03T11:18:02;96086.81;;;5.22;97.19
41686;BME280;27370;42.764;23.432;2023-02-03T11:20:28;96086.59;;;5.87;100.00
41686;BME280;27370;42.764;23.432;2023-02-03T11:22:54;96086.66;;;6.17;96.11
41686;BME280;27370;42.764;23.432;2023-02-03T11:25:27;96073.19;;;6.51;94.15
41686;BME280;27370;42.764;23.432;2023-02-03T11:28:02;96072.34;;;6.43;88.69
41686;BME280;27370;42.764;23.432;2023-02-03T11:30:29;96070.38;;;6.36;91.57
41686;BME280;27370;42.764;23.432;2023-02-03T11:32:55;96061.38;;;6.25;86.81
41686;BME280;27370;42.764;23.432;2023-02-03T11:35:23;96076.44;;;6.33;92.46
41686;BME280;27370;42.764;23.432;2023-02-03T11:37:54;96064.28;;;5.83;93.69
41686;BME280;27370;42.764;23.432;2023-02-03T11:50:56;96050.56;;;5.62;90.11
41686;BME280;27370;42.764;23.432;2023-02-03T11:56:27;96046.28;;;5.87;97.39
41686;BME280;27370;42.764;23.432;2023-02-03T12:02:21;96045.91;;;6.15;78.20
41686;BME280;27370;42.764;23.432;2023-02-03T12:07:54;96051.88;;;6.01;79.95
41686;BME280;27370;42.764;23.432;2023-02-03T12:16:54;96057.34;;;6.08;79.40
41686;BME280;27370;42.764;23.432;2023-02-03T12:22:15;96052.31;;;6.37;84.67
41686;BME280;27370;42.764;23.432;2023-02-03T12:24:58;96056.50;;;6.71;83.94
41686;BME280;27370;42.764;23.432;2023-02-03T12:30:21;96058.09;;;6.39;72.06
41686;BME280;27370;42.764;23.432;2023-02-03T12:32:51;96054.69;;;6.45;69.05
41686;BME280;27370;42.764;23.432;2023-02-03T12:35:31;96052.78;;;6.46;75.19
41686;BME280;27370;42.764;23.432;2023-02-03T12:38:43;96054.59;;;6.35;72.84
41686;BME280;27370;42.764;23.432;2023-02-03T12:40:59;96053.09;;;6.07;64.78
41686;BME280;27370;42.764;23.432;2023-02-03T12:46:27;96044.16;;;5.70;67.39
41686;BME280;27370;42.764;23.432;2023-02-03T12:51:50;96029.63;;;5.74;70.65
41686;BME280;27370;42.764;23.432;2023-02-03T12:54:40;96033.84;;;5.45;69.67
41686;BME280;27370;42.764;23.432;2023-02-03T12:57:16;96036.50;;;5.19;72.55
41686;BME280;27370;42.764;23.432;2023-02-03T12:59:51;96034.13;;;5.14;73.46
41686;BME280;27370;42.764;23.432;2023-02-03T13:02:25;96029.06;;;5.35;76.77
41686;BME280;27370;42.764;23.432;2023-02-03T13:05:04;96034.09;;;5.37;71.63
41686;BME280;27370;42.764;23.432;2023-02-03T13:07:39;96014.88;;;5.08;70.24
41686;BME280;27370;42.764;23.432;2023-02-03T13:10:16;96016.09;;;4.88;72.71
41686;BME280;27370;42.764;23.432;2023-02-03T13:12:50;96023.75;;;5.12;67.17
41686;BME280;27370;42.764;23.432;2023-02-03T13:17:47;96022.19;;;5.11;65.92
41686;BME280;27370;42.764;23.432;2023-02-03T13:20:18;96023.66;;;4.82;68.99
41686;BME280;27370;42.764;23.432;2023-02-03T13:22:45;96025.13;;;4.34;72.21
41686;BME280;27370;42.764;23.432;2023-02-03T13:37:02;96040.00;;;3.74;70.73
41686;BME280;27370;42.764;23.432;2023-02-03T13:42:27;96034.69;;;3.58;74.42
41686;BME280;27370;42.764;23.432;2023-02-03T13:45:18;96036.75;;;3.84;76.67
41686;BME280;27370;42.764;23.432;2023-02-03T13:47:50;96037.31;;;3.54;74.07
41686;BME280;27370;42.764;23.432;2023-02-03T13:50:25;96040.47;;;3.25;79.16
41686;BME280;27370;42.764;23.432;2023-02-03T13:53:01;96041.25;;;3.25;80.04
41686;BME280;27370;42.764;23.432;2023-02-03T13:55:38;96047.09;;;3.31;73.17
41686;BME280;27370;42.764;23.432;2023-02-03T13:58:06;96031.56;;;3.36;70.49
41686;BME280;27370;42.764;23.432;2023-02-03T14:06:00;96047.66;;;3.21;79.39
41686;BME280;27370;42.764;23.432;2023-02-03T14:16:42;96033.06;;;2.71;86.05
41686;BME280;27370;42.764;23.432;2023-02-03T14:24:14;96009.50;;;2.01;90.42
41686;BME280;27370;42.764;23.432;2023-02-03T14:26:46;96024.88;;;2.04;92.68
41686;BME280;27370;42.764;23.432;2023-02-03T14:29:43;96035.34;;;1.97;92.71
41686;BME280;27370;42.764;23.432;2023-02-03T14:32:10;96039.06;;;1.93;91.69
41686;BME280;27370;42.764;23.432;2023-02-03T14:34:38;96044.47;;;1.96;90.20
41686;BME280;27370;42.764;23.432;2023-02-03T14:46:12;96043.09;;;1.74;94.34
41686;BME280;27370;42.764;23.432;2023-02-03T15:07:56;96022.94;;;1.89;100.00
41686;BME280;27370;42.764;23.432;2023-02-03T15:10:28;96020.88;;;1.98;100.00
41686;BME280;27370;42.764;23.432;2023-02-03T15:12:56;96009.78;;;1.96;100.00
41686;BME280;27370;42.764;23.432;2023-02-03T15:15:30;96006.31;;;1.96;100.00
41686;BME280;27370;42.764;23.432;2023-02-03T15:17:59;95987.47;;;1.76;100.00
41686;BME280;27370;42.764;23.432;2023-02-03T15:20:45;95994.19;;;1.70;100.00
41686;BME280;27370;42.764;23.432;2023-02-03T15:23:19;95990.41;;;1.71;100.00
41686;BME280;27370;42.764;23.432;2023-02-03T15:25:45;95986.78;;;1.51;100.00
41686;BME280;27370;42.764;23.432;2023-02-03T15:28:19;95987.13;;;1.50;100.00
41686;BME280;27370;42.764;23.432;2023-02-03T15:30:51;95984.72;;;1.33;100.00
41686;BME280;27370;42.764;23.432;2023-02-03T15:33:19;95979.88;;;1.22;100.00